sensor_id;sensor_type;location;lat;lon;timestamp;temperature;humidity
17994;DHT22;9122;48.406;9.984;2023-08-01T00:02:11;21.10;91.80
17994;DHT22;9122;48.406;9.984;2023-08-01T00:04:55;21.10;91.70
17994;DHT22;9122;48.406;9.984;2023-08-01T00:07:39;21.10;91.70
17994;DHT22;9122;48.406;9.984;2023-08-01T00:10:24;21.00;91.70
17994;DHT22;9122;48.406;9.984;2023-08-01T00:13:09;21.00;91.70
17994;DHT22;9122;48.406;9.984;2023-08-01T00:15:53;21.00;91.60
17994;DHT22;9122;48.406;9.984;2023-08-01T00:18:38;21.00;99.90
17994;DHT22;9122;48.406;9.984;2023-08-01T00:21:23;20.90;91.70
17994;DHT22;9122;48.406;9.984;2023-08-01T00:24:07;20.90;92.00
17994;DHT22;9122;48.406;9.984;2023-08-01T00:26:52;20.90;99.90
17994;DHT22;9122;48.406;9.984;2023-08-01T00:29:39;20.90;91.80
17994;DHT22;9122;48.406;9.984;2023-08-01T00:32:24;20.90;91.70
17994;DHT22;9122;48.406;9.984;2023-08-01T00:35:08;20.90;99.90
17994;DHT22;9122;48.406;9.984;2023-08-01T00:37:52;20.90;99.90
17994;DHT22;9122;48.406;9.984;2023-08-01T00:40:37;20.80;91.60
17994;DHT22;9122;48.406;9.984;2023-08-01T00:43:22;20.80;91.70
17994;DHT22;9122;48.406;9.984;2023-08-01T00:46:07;20.80;99.90
17994;DHT22;9122;48.406;9.984;2023-08-01T00:48:53;20.80;91.80
17994;DHT22;9122;48.406;9.984;2023-08-01T00:51:37;20.80;91.80
17994;DHT22;9122;48.406;9.984;2023-08-01T00:54:22;20.80;91.80
17994;DHT22;9122;48.406;9.984;2023-08-01T00:57:07;20.70;91.40
17994;DHT22;9122;48.406;9.984;2023-08-01T00:59:51;20.70;91.80
17994;DHT22;9122;48.406;9.984;2023-08-01T01:02:36;20.70;91.80
17994;DHT22;9122;48.406;9.984;2023-08-01T01:05:23;20.70;91.80
17994;DHT22;9122;48.406;9.984;2023-08-01T01:08:08;20.70;91.80
17994;DHT22;9122;48.406;9.984;2023-08-01T01:10:52;20.80;99.90
17994;DHT22;9122;48.406;9.984;2023-08-01T01:13:37;20.60;91.40
17994;DHT22;9122;48.406;9.984;2023-08-01T01:16:22;20.60;91.30
17994;DHT22;9122;48.406;9.984;2023-08-01T01:19:08;20.60;91.30
17994;DHT22;9122;48.406;9.984;2023-08-01T01:21:53;20.60;91.40
17994;DHT22;9122;48.406;9.984;2023-08-01T01:24:39;20.60;91.50
17994;DHT22;9122;48.406;9.984;2023-08-01T01:27:25;20.60;91.20
17994;DHT22;9122;48.406;9.984;2023-08-01T01:30:10;20.50;91.10
17994;DHT22;9122;48.406;9.984;2023-08-01T01:32:55;20.50;99.90
17994;DHT22;9122;48.406;9.984;2023-08-01T01:35:40;20.50;99.90
17994;DHT22;9122;48.406;9.984;2023-08-01T01:38:24;20.50;91.10
17994;DHT22;9122;48.406;9.984;2023-08-01T01:41:08;20.50;91.10
17994;DHT22;9122;48.406;9.984;2023-08-01T01:43:52;20.40;91.10
17994;DHT22;9122;48.406;9.984;2023-08-01T01:46:37;20.40;99.90
17994;DHT22;9122;48.406;9.984;2023-08-01T01:49:21;20.40;99.90
17994;DHT22;9122;48.406;9.984;2023-08-01T01:52:06;20.40;91.00
17994;DHT22;9122;48.406;9.984;2023-08-01T01:54:50;20.40;91.10
17994;DHT22;9122;48.406;9.984;2023-08-01T01:57:35;20.40;91.20
17994;DHT22;9122;48.406;9.984;2023-08-01T02:00:20;20.40;91.30
17994;DHT22;9122;48.406;9.984;2023-08-01T02:03:04;20.40;91.50
17994;DHT22;9122;48.406;9.984;2023-08-01T02:05:51;20.40;91.60
17994;DHT22;9122;48.406;9.984;2023-08-01T02:08:35;20.40;91.80
17994;DHT22;9122;48.406;9.984;2023-08-01T02:11:19;20.50;99.90
17994;DHT22;9122;48.406;9.984;2023-08-01T02:14:04;20.30;92.10
17994;DHT22;9122;48.406;9.984;2023-08-01T02:16:48;20.30;92.20
17994;DHT22;9122;48.406;9.984;2023-08-01T02:19:33;20.40;92.20
17994;DHT22;9122;48.406;9.984;2023-08-01T02:22:17;20.30;92.20
17994;DHT22;9122;48.406;9.984;2023-08-01T02:25:02;20.30;99.90
17994;DHT22;9122;48.406;9.984;2023-08-01T02:27:47;20.20;92.40
17994;DHT22;9122;48.406;9.984;2023-08-01T02:30:31;20.20;92.60
17994;DHT22;9122;48.406;9.984;2023-08-01T02:33:15;20.20;92.70
17994;DHT22;9122;48.406;9.984;2023-08-01T02:35:59;20.10;92.90
17994;DHT22;9122;48.406;9.984;2023-08-01T02:38:44;20.10;93.10
17994;DHT22;9122;48.406;9.984;2023-08-01T02:41:29;20.10;93.20
17994;DHT22;9122;48.406;9.984;2023-08-01T02:44:14;20.10;93.20
17994;DHT22;9122;48.406;9.984;2023-08-01T02:46:58;20.10;99.90
17994;DHT22;9122;48.406;9.984;2023-08-01T02:49:43;20.00;99.90
17994;DHT22;9122;48.406;9.984;2023-08-01T02:52:27;20.00;93.40
17994;DHT22;9122;48.406;9.984;2023-08-01T02:55:12;20.00;93.50
17994;DHT22;9122;48.406;9.984;2023-08-01T02:57:56;19.90;93.60
17994;DHT22;9122;48.406;9.984;2023-08-01T03:00:40;19.90;94.20
17994;DHT22;9122;48.406;9.984;2023-08-01T03:03:24;19.90;94.00
17994;DHT22;9122;48.406;9.984;2023-08-01T03:06:09;19.80;94.10
17994;DHT22;9122;48.406;9.984;2023-08-01T03:08:53;19.90;94.20
17994;DHT22;9122;48.406;9.984;2023-08-01T03:11:38;19.80;94.30
17994;DHT22;9122;48.406;9.984;2023-08-01T03:14:23;19.80;94.40
17994;DHT22;9122;48.406;9.984;2023-08-01T03:17:07;19.80;94.50
17994;DHT22;9122;48.406;9.984;2023-08-01T03:19:52;19.70;99.90
17994;DHT22;9122;48.406;9.984;2023-08-01T03:22:38;19.70;94.80
17994;DHT22;9122;48.406;9.984;2023-08-01T03:25:23;19.70;94.80
17994;DHT22;9122;48.406;9.984;2023-08-01T03:28:08;19.80;99.90
17994;DHT22;9122;48.406;9.984;2023-08-01T03:30:53;19.60;95.10
17994;DHT22;9122;48.406;9.984;2023-08-01T03:33:38;19.60;95.20
17994;DHT22;9122;48.406;9.984;2023-08-01T03:36:22;19.60;95.30
17994;DHT22;9122;48.406;9.984;2023-08-01T03:39:07;19.60;95.40
17994;DHT22;9122;48.406;9.984;2023-08-01T03:41:54;19.50;95.40
17994;DHT22;9122;48.406;9.984;2023-08-01T03:44:38;19.50;95.50
17994;DHT22;9122;48.406;9.984;2023-08-01T03:47:23;19.50;95.60
17994;DHT22;9122;48.406;9.984;2023-08-01T03:50:07;19.50;95.70
17994;DHT22;9122;48.406;9.984;2023-08-01T03:52:51;19.50;95.60
17994;DHT22;9122;48.406;9.984;2023-08-01T03:55:35;19.40;99.90
17994;DHT22;9122;48.406;9.984;2023-08-01T03:58:21;19.20;99.90
17994;DHT22;9122;48.406;9.984;2023-08-01T04:01:05;19.40;95.70
17994;DHT22;9122;48.406;9.984;2023-08-01T04:03:50;19.40;95.80
17994;DHT22;9122;48.406;9.984;2023-08-01T04:06:35;19.40;95.80
17994;DHT22;9122;48.406;9.984;2023-08-01T04:09:19;19.40;95.80
17994;DHT22;9122;48.406;9.984;2023-08-01T04:12:04;19.30;99.90
17994;DHT22;9122;48.406;9.984;2023-08-01T04:14:50;19.30;95.70
17994;DHT22;9122;48.406;9.984;2023-08-01T04:17:34;19.30;95.70
17994;DHT22;9122;48.406;9.984;2023-08-01T04:20:19;19.30;95.70
17994;DHT22;9122;48.406;9.984;2023-08-01T04:23:03;19.30;95.60
17994;DHT22;9122;48.406;9.984;2023-08-01T04:25:47;19.30;95.70
17994;DHT22;9122;48.406;9.984;2023-08-01T04:28:32;19.30;95.80
17994;DHT22;9122;48.406;9.984;2023-08-01T04:31:17;19.30;95.80
17994;DHT22;9122;48.406;9.984;2023-08-01T04:34:01;19.20;95.90
17994;DHT22;9122;48.406;9.984;2023-08-01T04:36:46;19.30;95.80
17994;DHT22;9122;48.406;9.984;2023-08-01T04:39:30;19.30;95.80
17994;DHT22;9122;48.406;9.984;2023-08-01T04:42:14;19.20;95.90
17994;DHT22;9122;48.406;9.984;2023-08-01T04:44:58;19.20;95.90
17994;DHT22;9122;48.406;9.984;2023-08-01T04:47:42;19.20;95.90
17994;DHT22;9122;48.406;9.984;2023-08-01T04:50:27;19.20;95.90
17994;DHT22;9122;48.406;9.984;2023-08-01T04:53:11;19.20;96.00
17994;DHT22;9122;48.406;9.984;2023-08-01T04:55:56;19.20;96.20
17994;DHT22;9122;48.406;9.984;2023-08-01T04:58:40;19.10;96.20
17994;DHT22;9122;48.406;9.984;2023-08-01T05:01:25;19.20;96.20
17994;DHT22;9122;48.406;9.984;2023-08-01T05:04:09;19.10;96.20
17994;DHT22;9122;48.406;9.984;2023-08-01T05:06:54;19.10;96.30
17994;DHT22;9122;48.406;9.984;2023-08-01T05:09:38;19.10;96.30
17994;DHT22;9122;48.406;9.984;2023-08-01T05:12:22;19.10;96.40
17994;DHT22;9122;48.406;9.984;2023-08-01T05:15:06;19.10;96.40
17994;DHT22;9122;48.406;9.984;2023-08-01T05:17:52;19.10;99.90
17994;DHT22;9122;48.406;9.984;2023-08-01T05:20:36;19.10;96.40
17994;DHT22;9122;48.406;9.984;2023-08-01T05:23:21;19.10;96.40
17994;DHT22;9122;48.406;9.984;2023-08-01T05:26:05;19.00;96.50
17994;DHT22;9122;48.406;9.984;2023-08-01T05:28:49;19.00;96.50
17994;DHT22;9122;48.406;9.984;2023-08-01T05:31:33;19.00;96.50
17994;DHT22;9122;48.406;9.984;2023-08-01T05:34:18;19.00;96.80
17994;DHT22;9122;48.406;9.984;2023-08-01T05:37:02;19.00;96.50
17994;DHT22;9122;48.406;9.984;2023-08-01T05:39:47;19.00;96.60
17994;DHT22;9122;48.406;9.984;2023-08-01T05:42:31;19.00;96.60
17994;DHT22;9122;48.406;9.984;2023-08-01T05:45:15;18.90;96.60
17994;DHT22;9122;48.406;9.984;2023-08-01T05:48:01;19.20;99.90
17994;DHT22;9122;48.406;9.984;2023-08-01T05:50:45;18.90;96.70
17994;DHT22;9122;48.406;9.984;2023-08-01T05:53:30;18.90;96.70
17994;DHT22;9122;48.406;9.984;2023-08-01T05:56:15;18.90;99.90
17994;DHT22;9122;48.406;9.984;2023-08-01T05:58:59;18.90;96.40
17994;DHT22;9122;48.406;9.984;2023-08-01T06:01:44;18.90;96.40
17994;DHT22;9122;48.406;9.984;2023-08-01T06:04:28;18.90;96.30
17994;DHT22;9122;48.406;9.984;2023-08-01T06:07:13;18.90;96.20
17994;DHT22;9122;48.406;9.984;2023-08-01T06:09:57;18.90;96.20
17994;DHT22;9122;48.406;9.984;2023-08-01T06:12:41;18.90;96.00
17994;DHT22;9122;48.406;9.984;2023-08-01T06:15:26;18.90;95.80
17994;DHT22;9122;48.406;9.984;2023-08-01T06:18:10;18.90;95.80
17994;DHT22;9122;48.406;9.984;2023-08-01T06:20:55;19.00;99.90
17994;DHT22;9122;48.406;9.984;2023-08-01T06:23:39;19.00;95.40
17994;DHT22;9122;48.406;9.984;2023-08-01T06:26:24;19.00;95.20
17994;DHT22;9122;48.406;9.984;2023-08-01T06:32:51;19.10;95.00
17994;DHT22;9122;48.406;9.984;2023-08-01T06:35:36;19.10;95.00
17994;DHT22;9122;48.406;9.984;2023-08-01T06:38:20;19.10;94.80
17994;DHT22;9122;48.406;9.984;2023-08-01T06:41:04;19.10;94.70
17994;DHT22;9122;48.406;9.984;2023-08-01T06:43:48;19.20;94.70
17994;DHT22;9122;48.406;9.984;2023-08-01T06:46:32;19.20;99.90
17994;DHT22;9122;48.406;9.984;2023-08-01T06:49:17;19.10;94.50
17994;DHT22;9122;48.406;9.984;2023-08-01T06:52:01;19.20;94.60
17994;DHT22;9122;48.406;9.984;2023-08-01T06:54:46;19.10;94.50
17994;DHT22;9122;48.406;9.984;2023-08-01T06:57:30;19.20;99.90
17994;DHT22;9122;48.406;9.984;2023-08-01T07:00:15;19.10;94.10
17994;DHT22;9122;48.406;9.984;2023-08-01T07:03:00;19.20;94.10
17994;DHT22;9122;48.406;9.984;2023-08-01T07:05:45;19.20;93.90
17994;DHT22;9122;48.406;9.984;2023-08-01T07:08:29;19.20;93.60
17994;DHT22;9122;48.406;9.984;2023-08-01T07:11:13;19.20;93.30
17994;DHT22;9122;48.406;9.984;2023-08-01T07:13:58;19.20;93.30
17994;DHT22;9122;48.406;9.984;2023-08-01T07:16:43;19.20;93.30
17994;DHT22;9122;48.406;9.984;2023-08-01T07:19:27;19.20;93.30
17994;DHT22;9122;48.406;9.984;2023-08-01T07:22:11;19.20;93.10
17994;DHT22;9122;48.406;9.984;2023-08-01T07:24:56;19.20;93.00
17994;DHT22;9122;48.406;9.984;2023-08-01T07:27:40;19.20;99.90
17994;DHT22;9122;48.406;9.984;2023-08-01T07:30:25;19.20;93.30
17994;DHT22;9122;48.406;9.984;2023-08-01T07:33:09;19.20;99.90
17994;DHT22;9122;48.406;9.984;2023-08-01T07:35:54;19.20;93.10
17994;DHT22;9122;48.406;9.984;2023-08-01T07:38:38;19.20;99.90
17994;DHT22;9122;48.406;9.984;2023-08-01T07:41:22;19.20;93.20
17994;DHT22;9122;48.406;9.984;2023-08-01T07:44:06;19.20;93.30
17994;DHT22;9122;48.406;9.984;2023-08-01T07:46:50;19.20;93.40
17994;DHT22;9122;48.406;9.984;2023-08-01T07:49:35;19.30;99.90
17994;DHT22;9122;48.406;9.984;2023-08-01T07:52:19;19.20;93.20
17994;DHT22;9122;48.406;9.984;2023-08-01T07:55:03;19.20;92.90
17994;DHT22;9122;48.406;9.984;2023-08-01T07:57:47;19.20;99.90
17994;DHT22;9122;48.406;9.984;2023-08-01T08:00:34;19.20;92.70
17994;DHT22;9122;48.406;9.984;2023-08-01T08:03:19;19.20;92.70
17994;DHT22;9122;48.406;9.984;2023-08-01T08:06:06;19.30;92.40
17994;DHT22;9122;48.406;9.984;2023-08-01T08:08:50;19.30;92.30
17994;DHT22;9122;48.406;9.984;2023-08-01T08:11:35;19.40;99.90
17994;DHT22;9122;48.406;9.984;2023-08-01T08:14:19;19.40;92.20
17994;DHT22;9122;48.406;9.984;2023-08-01T08:17:05;19.40;92.20
17994;DHT22;9122;48.406;9.984;2023-08-01T08:19:50;19.40;92.10
17994;DHT22;9122;48.406;9.984;2023-08-01T08:22:34;19.50;91.80
17994;DHT22;9122;48.406;9.984;2023-08-01T08:25:18;19.50;91.90
17994;DHT22;9122;48.406;9.984;2023-08-01T08:28:03;19.50;92.40
17994;DHT22;9122;48.406;9.984;2023-08-01T08:30:48;19.50;92.20
17994;DHT22;9122;48.406;9.984;2023-08-01T08:33:33;19.50;92.20
17994;DHT22;9122;48.406;9.984;2023-08-01T08:36:17;19.50;92.00
17994;DHT22;9122;48.406;9.984;2023-08-01T08:39:01;19.50;92.00
17994;DHT22;9122;48.406;9.984;2023-08-01T08:41:50;19.50;91.80
17994;DHT22;9122;48.406;9.984;2023-08-01T08:44:42;19.60;91.60
17994;DHT22;9122;48.406;9.984;2023-08-01T08:47:28;19.70;99.90
17994;DHT22;9122;48.406;9.984;2023-08-01T08:50:12;19.60;91.70
17994;DHT22;9122;48.406;9.984;2023-08-01T08:52:58;19.60;92.30
17994;DHT22;9122;48.406;9.984;2023-08-01T08:55:42;19.60;92.30
17994;DHT22;9122;48.406;9.984;2023-08-01T08:58:29;19.50;92.60
17994;DHT22;9122;48.406;9.984;2023-08-01T09:01:17;19.50;92.50
17994;DHT22;9122;48.406;9.984;2023-08-01T09:04:03;19.60;99.90
17994;DHT22;9122;48.406;9.984;2023-08-01T09:06:51;19.50;92.00
17994;DHT22;9122;48.406;9.984;2023-08-01T09:09:41;19.50;91.80
17994;DHT22;9122;48.406;9.984;2023-08-01T09:12:26;19.60;92.30
17994;DHT22;9122;48.406;9.984;2023-08-01T09:15:10;19.60;92.60
17994;DHT22;9122;48.406;9.984;2023-08-01T09:17:55;19.50;99.90
17994;DHT22;9122;48.406;9.984;2023-08-01T09:20:47;19.50;92.80
17994;DHT22;9122;48.406;9.984;2023-08-01T09:23:31;19.50;92.80
17994;DHT22;9122;48.406;9.984;2023-08-01T09:26:17;19.50;99.90
17994;DHT22;9122;48.406;9.984;2023-08-01T09:29:02;19.40;93.40
17994;DHT22;9122;48.406;9.984;2023-08-01T09:31:47;19.40;93.70
17994;DHT22;9122;48.406;9.984;2023-08-01T09:34:33;19.30;98.50
17994;DHT22;9122;48.406;9.984;2023-08-01T09:37:17;19.20;94.40
17994;DHT22;9122;48.406;9.984;2023-08-01T09:40:02;19.20;94.60
17994;DHT22;9122;48.406;9.984;2023-08-01T09:42:47;19.10;94.80
17994;DHT22;9122;48.406;9.984;2023-08-01T09:45:31;19.10;99.90
17994;DHT22;9122;48.406;9.984;2023-08-01T09:48:27;19.00;99.90
17994;DHT22;9122;48.406;9.984;2023-08-01T09:53:56;18.90;95.70
17994;DHT22;9122;48.406;9.984;2023-08-01T09:56:46;18.90;95.90
17994;DHT22;9122;48.406;9.984;2023-08-01T09:59:31;18.90;99.90
17994;DHT22;9122;48.406;9.984;2023-08-01T10:02:18;18.80;99.90
17994;DHT22;9122;48.406;9.984;2023-08-01T10:05:05;19.00;99.90
17994;DHT22;9122;48.406;9.984;2023-08-01T10:07:51;18.90;96.30
17994;DHT22;9122;48.406;9.984;2023-08-01T10:10:38;18.90;96.30
17994;DHT22;9122;48.406;9.984;2023-08-01T10:13:24;18.90;99.90
17994;DHT22;9122;48.406;9.984;2023-08-01T10:16:12;18.90;96.60
17994;DHT22;9122;48.406;9.984;2023-08-01T10:18:58;18.90;96.60
17994;DHT22;9122;48.406;9.984;2023-08-01T10:21:44;18.90;96.60
17994;DHT22;9122;48.406;9.984;2023-08-01T10:24:29;18.90;96.20
17994;DHT22;9122;48.406;9.984;2023-08-01T10:27:14;18.90;96.60
17994;DHT22;9122;48.406;9.984;2023-08-01T10:30:00;19.00;96.90
17994;DHT22;9122;48.406;9.984;2023-08-01T10:32:45;19.00;97.00
17994;DHT22;9122;48.406;9.984;2023-08-01T10:35:39;18.90;97.10
17994;DHT22;9122;48.406;9.984;2023-08-01T10:38:24;18.90;97.20
17994;DHT22;9122;48.406;9.984;2023-08-01T10:41:20;18.90;97.20
17994;DHT22;9122;48.406;9.984;2023-08-01T10:44:09;18.90;97.30
17994;DHT22;9122;48.406;9.984;2023-08-01T10:46:55;18.90;97.10
17994;DHT22;9122;48.406;9.984;2023-08-01T10:49:44;18.90;96.90
17994;DHT22;9122;48.406;9.984;2023-08-01T10:52:28;18.90;96.80
17994;DHT22;9122;48.406;9.984;2023-08-01T10:55:13;18.90;97.10
17994;DHT22;9122;48.406;9.984;2023-08-01T10:57:57;18.80;96.60
17994;DHT22;9122;48.406;9.984;2023-08-01T11:00:42;18.80;96.90
17994;DHT22;9122;48.406;9.984;2023-08-01T11:03:37;18.80;97.20
17994;DHT22;9122;48.406;9.984;2023-08-01T11:06:21;18.80;97.30
17994;DHT22;9122;48.406;9.984;2023-08-01T11:12:02;18.70;97.70
17994;DHT22;9122;48.406;9.984;2023-08-01T11:14:46;18.70;97.80
17994;DHT22;9122;48.406;9.984;2023-08-01T11:17:32;18.80;99.90
17994;DHT22;9122;48.406;9.984;2023-08-01T11:20:19;18.70;98.00
17994;DHT22;9122;48.406;9.984;2023-08-01T11:23:04;18.70;98.00
17994;DHT22;9122;48.406;9.984;2023-08-01T11:25:49;19.70;98.40
17994;DHT22;9122;48.406;9.984;2023-08-01T11:28:34;18.70;98.20
17994;DHT22;9122;48.406;9.984;2023-08-01T11:31:19;18.60;98.50
17994;DHT22;9122;48.406;9.984;2023-08-01T11:34:03;18.60;98.30
17994;DHT22;9122;48.406;9.984;2023-08-01T11:36:48;18.60;98.30
17994;DHT22;9122;48.406;9.984;2023-08-01T11:39:33;18.60;98.40
17994;DHT22;9122;48.406;9.984;2023-08-01T11:42:18;18.60;99.90
17994;DHT22;9122;48.406;9.984;2023-08-01T11:45:09;18.60;98.50
17994;DHT22;9122;48.406;9.984;2023-08-01T11:47:54;18.60;98.60
17994;DHT22;9122;48.406;9.984;2023-08-01T11:50:39;18.60;98.70
17994;DHT22;9122;48.406;9.984;2023-08-01T11:53:23;18.60;98.90
17994;DHT22;9122;48.406;9.984;2023-08-01T11:56:08;18.60;98.60
17994;DHT22;9122;48.406;9.984;2023-08-01T11:58:52;18.70;98.60
17994;DHT22;9122;48.406;9.984;2023-08-01T12:01:42;18.60;98.70
17994;DHT22;9122;48.406;9.984;2023-08-01T12:04:27;18.70;99.90
17994;DHT22;9122;48.406;9.984;2023-08-01T12:07:15;18.70;98.80
17994;DHT22;9122;48.406;9.984;2023-08-01T12:10:02;18.70;99.90
17994;DHT22;9122;48.406;9.984;2023-08-01T12:12:48;18.90;99.90
17994;DHT22;9122;48.406;9.984;2023-08-01T12:15:32;18.80;99.20
17994;DHT22;9122;48.406;9.984;2023-08-01T12:18:28;18.90;99.00
17994;DHT22;9122;48.406;9.984;2023-08-01T12:21:13;18.90;98.80
17994;DHT22;9122;48.406;9.984;2023-08-01T12:23:57;19.00;99.90
17994;DHT22;9122;48.406;9.984;2023-08-01T12:26:41;19.10;99.90
17994;DHT22;9122;48.406;9.984;2023-08-01T12:29:26;19.10;98.70
17994;DHT22;9122;48.406;9.984;2023-08-01T12:32:11;19.20;98.50
17994;DHT22;9122;48.406;9.984;2023-08-01T12:34:55;19.20;98.40
17994;DHT22;9122;48.406;9.984;2023-08-01T12:37:39;19.30;98.40
17994;DHT22;9122;48.406;9.984;2023-08-01T12:40:23;19.30;98.40
17994;DHT22;9122;48.406;9.984;2023-08-01T12:43:07;19.40;98.30
17994;DHT22;9122;48.406;9.984;2023-08-01T12:45:51;19.40;98.40
17994;DHT22;9122;48.406;9.984;2023-08-01T12:48:36;19.60;99.90
17994;DHT22;9122;48.406;9.984;2023-08-01T12:51:20;19.60;98.60
17994;DHT22;9122;48.406;9.984;2023-08-01T12:54:05;19.70;98.70
17994;DHT22;9122;48.406;9.984;2023-08-01T12:56:50;20.00;99.90
17994;DHT22;9122;48.406;9.984;2023-08-01T12:59:34;19.90;98.20
17994;DHT22;9122;48.406;9.984;2023-08-01T13:02:18;19.90;97.90
17994;DHT22;9122;48.406;9.984;2023-08-01T13:05:04;20.00;99.90
17994;DHT22;9122;48.406;9.984;2023-08-01T13:07:49;19.90;98.40
17994;DHT22;9122;48.406;9.984;2023-08-01T13:10:36;20.00;99.00
17994;DHT22;9122;48.406;9.984;2023-08-01T13:13:21;20.10;99.20
17994;DHT22;9122;48.406;9.984;2023-08-01T13:18:51;20.00;99.30
17994;DHT22;9122;48.406;9.984;2023-08-01T13:21:35;20.00;99.10
17994;DHT22;9122;48.406;9.984;2023-08-01T13:24:19;20.00;99.00
17994;DHT22;9122;48.406;9.984;2023-08-01T13:27:04;20.10;98.40
17994;DHT22;9122;48.406;9.984;2023-08-01T13:29:48;20.10;98.80
17994;DHT22;9122;48.406;9.984;2023-08-01T13:32:36;20.10;98.50
17994;DHT22;9122;48.406;9.984;2023-08-01T13:35:20;20.20;98.10
17994;DHT22;9122;48.406;9.984;2023-08-01T13:38:05;20.30;99.90
17994;DHT22;9122;48.406;9.984;2023-08-01T13:40:51;20.30;97.60
17994;DHT22;9122;48.406;9.984;2023-08-01T13:43:35;20.30;97.30
17994;DHT22;9122;48.406;9.984;2023-08-01T13:46:19;20.40;96.70
17994;DHT22;9122;48.406;9.984;2023-08-01T13:49:03;20.40;96.10
17994;DHT22;9122;48.406;9.984;2023-08-01T13:51:48;20.50;95.80
17994;DHT22;9122;48.406;9.984;2023-08-01T13:54:32;20.50;95.50
17994;DHT22;9122;48.406;9.984;2023-08-01T13:57:16;20.50;95.70
17994;DHT22;9122;48.406;9.984;2023-08-01T14:00:00;20.60;95.60
17994;DHT22;9122;48.406;9.984;2023-08-01T14:02:44;20.60;94.40
17994;DHT22;9122;48.406;9.984;2023-08-01T14:05:29;20.60;93.70
17994;DHT22;9122;48.406;9.984;2023-08-01T14:08:13;20.60;93.20
17994;DHT22;9122;48.406;9.984;2023-08-01T14:10:57;20.60;92.90
17994;DHT22;9122;48.406;9.984;2023-08-01T14:13:42;20.70;92.80
17994;DHT22;9122;48.406;9.984;2023-08-01T14:16:26;20.80;92.40
17994;DHT22;9122;48.406;9.984;2023-08-01T14:19:11;20.80;91.90
17994;DHT22;9122;48.406;9.984;2023-08-01T14:21:56;20.90;91.80
17994;DHT22;9122;48.406;9.984;2023-08-01T14:24:42;20.90;91.80
17994;DHT22;9122;48.406;9.984;2023-08-01T14:27:27;20.90;91.60
17994;DHT22;9122;48.406;9.984;2023-08-01T14:30:11;21.00;90.90
17994;DHT22;9122;48.406;9.984;2023-08-01T14:33:03;21.00;90.70
17994;DHT22;9122;48.406;9.984;2023-08-01T14:35:47;21.00;90.50
17994;DHT22;9122;48.406;9.984;2023-08-01T14:38:32;21.00;99.90
17994;DHT22;9122;48.406;9.984;2023-08-01T14:41:17;21.00;88.90
17994;DHT22;9122;48.406;9.984;2023-08-01T14:44:01;21.00;99.90
17994;DHT22;9122;48.406;9.984;2023-08-01T14:46:46;21.00;87.60
17994;DHT22;9122;48.406;9.984;2023-08-01T14:49:30;21.00;87.70
17994;DHT22;9122;48.406;9.984;2023-08-01T14:52:15;21.00;87.50
17994;DHT22;9122;48.406;9.984;2023-08-01T14:54:59;21.10;86.80
17994;DHT22;9122;48.406;9.984;2023-08-01T14:57:44;21.10;86.80
17994;DHT22;9122;48.406;9.984;2023-08-01T15:00:28;21.10;87.10
17994;DHT22;9122;48.406;9.984;2023-08-01T15:03:13;21.10;86.90
17994;DHT22;9122;48.406;9.984;2023-08-01T15:06:08;21.10;86.80
17994;DHT22;9122;48.406;9.984;2023-08-01T15:08:52;21.10;87.50
17994;DHT22;9122;48.406;9.984;2023-08-01T15:11:37;21.20;88.00
17994;DHT22;9122;48.406;9.984;2023-08-01T15:14:20;21.20;87.10
17994;DHT22;9122;48.406;9.984;2023-08-01T15:17:06;21.20;85.70
17994;DHT22;9122;48.406;9.984;2023-08-01T15:19:53;21.20;84.60
17994;DHT22;9122;48.406;9.984;2023-08-01T15:22:37;21.20;83.20
17994;DHT22;9122;48.406;9.984;2023-08-01T15:25:22;21.30;97.60
17994;DHT22;9122;48.406;9.984;2023-08-01T15:28:06;21.20;81.60
17994;DHT22;9122;48.406;9.984;2023-08-01T15:31:04;21.20;81.60
17994;DHT22;9122;48.406;9.984;2023-08-01T15:33:49;21.30;80.80
17994;DHT22;9122;48.406;9.984;2023-08-01T15:36:34;21.30;80.00
17994;DHT22;9122;48.406;9.984;2023-08-01T15:39:19;21.30;79.40
17994;DHT22;9122;48.406;9.984;2023-08-01T15:42:03;21.30;79.20
17994;DHT22;9122;48.406;9.984;2023-08-01T15:44:47;21.30;78.80
17994;DHT22;9122;48.406;9.984;2023-08-01T15:47:32;21.30;77.80
17994;DHT22;9122;48.406;9.984;2023-08-01T15:50:16;21.40;78.00
17994;DHT22;9122;48.406;9.984;2023-08-01T15:53:00;21.40;78.90
17994;DHT22;9122;48.406;9.984;2023-08-01T15:55:53;21.40;78.70
17994;DHT22;9122;48.406;9.984;2023-08-01T15:58:38;21.40;78.30
17994;DHT22;9122;48.406;9.984;2023-08-01T16:01:22;21.30;78.50
17994;DHT22;9122;48.406;9.984;2023-08-01T16:04:07;21.40;78.80
17994;DHT22;9122;48.406;9.984;2023-08-01T16:06:50;21.40;79.20
17994;DHT22;9122;48.406;9.984;2023-08-01T16:09:35;21.40;79.10
17994;DHT22;9122;48.406;9.984;2023-08-01T16:12:20;21.40;79.10
17994;DHT22;9122;48.406;9.984;2023-08-01T16:15:05;21.40;78.70
17994;DHT22;9122;48.406;9.984;2023-08-01T16:17:50;21.50;78.20
17994;DHT22;9122;48.406;9.984;2023-08-01T16:20:35;21.40;77.40
17994;DHT22;9122;48.406;9.984;2023-08-01T16:23:20;21.30;95.60
17994;DHT22;9122;48.406;9.984;2023-08-01T16:26:05;21.50;76.70
17994;DHT22;9122;48.406;9.984;2023-08-01T16:28:49;21.50;76.70
17994;DHT22;9122;48.406;9.984;2023-08-01T16:31:33;21.50;77.10
17994;DHT22;9122;48.406;9.984;2023-08-01T16:34:18;21.60;78.60
17994;DHT22;9122;48.406;9.984;2023-08-01T16:37:02;21.60;77.60
17994;DHT22;9122;48.406;9.984;2023-08-01T16:39:47;21.60;77.30
17994;DHT22;9122;48.406;9.984;2023-08-01T16:42:31;21.60;78.00
17994;DHT22;9122;48.406;9.984;2023-08-01T16:45:16;21.60;77.10
17994;DHT22;9122;48.406;9.984;2023-08-01T16:48:00;21.60;76.70
17994;DHT22;9122;48.406;9.984;2023-08-01T16:50:44;21.60;76.80
17994;DHT22;9122;48.406;9.984;2023-08-01T16:53:28;21.60;76.80
17994;DHT22;9122;48.406;9.984;2023-08-01T16:56:12;21.60;77.20
17994;DHT22;9122;48.406;9.984;2023-08-01T16:58:57;21.60;77.30
17994;DHT22;9122;48.406;9.984;2023-08-01T17:01:41;21.60;77.00
17994;DHT22;9122;48.406;9.984;2023-08-01T17:04:25;21.60;77.10
17994;DHT22;9122;48.406;9.984;2023-08-01T17:07:11;21.60;77.30
17994;DHT22;9122;48.406;9.984;2023-08-01T17:10:00;21.60;77.70
17994;DHT22;9122;48.406;9.984;2023-08-01T17:12:45;21.60;77.40
17994;DHT22;9122;48.406;9.984;2023-08-01T17:15:30;21.60;95.90
17994;DHT22;9122;48.406;9.984;2023-08-01T17:18:14;21.60;77.70
17994;DHT22;9122;48.406;9.984;2023-08-01T17:21:02;21.60;78.20
17994;DHT22;9122;48.406;9.984;2023-08-01T17:23:46;21.60;78.80
17994;DHT22;9122;48.406;9.984;2023-08-01T17:26:31;21.60;79.10
17994;DHT22;9122;48.406;9.984;2023-08-01T17:29:15;21.70;79.40
17994;DHT22;9122;48.406;9.984;2023-08-01T17:32:00;21.60;79.30
17994;DHT22;9122;48.406;9.984;2023-08-01T17:34:44;21.70;79.60
17994;DHT22;9122;48.406;9.984;2023-08-01T17:37:29;21.60;79.70
17994;DHT22;9122;48.406;9.984;2023-08-01T17:40:13;21.60;80.20
17994;DHT22;9122;48.406;9.984;2023-08-01T17:42:57;21.60;80.30
17994;DHT22;9122;48.406;9.984;2023-08-01T17:45:42;21.60;79.60
17994;DHT22;9122;48.406;9.984;2023-08-01T17:48:26;21.60;79.10
17994;DHT22;9122;48.406;9.984;2023-08-01T17:51:11;21.60;79.00